Create Custom Reports and Graphics: Custom Report

Latest Observations

MWA Stations

15 Minute Data | America/Los_Angeles
as of 5/9/26 12:50 PM PDT
Station Date Time Temp (°F) RH (%) Dew Pt (°F) Wind Dir (°) Wind Spd (mph) Wind Gust (mph) Solar Rad (W/m2) Pressure (mb) Daily Min Temp (°F) Daily Max Temp (°F) Daily Max Wind (mph) Daily Rain (In) Yest MinT (°F) Yest MaxT (°F) Yest MaxGst (mph) Yest Precip (In) MinBV Day (V)
MWA Office 5/9/26 1245 87.7   0.1 12   3 28.0   5.7 W | 270 3.7   3.1 14.2   0.9 1,001   12 1,007.3   1.6 48.8   2.7 88.4   0.2 14.2   1.5 0.00 51.5 93.3 23.4 0.00 12.4   0.0
MWA OPS 5/9/26 1245 88.4   0.8 15   1 35.3   0.8 NNW | 329 2.4   0.0 6.8   1.5 1,047   17 1,006.8   1.7 52.9   1.1 89.1   0.5 11.2   0.4 0.00 53.9 90.4 24.1 0.00 12.8   0.0
LV-PS 5/9/26 1245 87.5   0.5 13   2 30.0   4.6 WNW | 300 5.3   2.4 10.3   5.5 1,032   10 1,006.9   1.3 60.2   1.1 88.2   1.4 17.5   0.4 0.00 59.2 93.9 22.6 0.00 12.8   0.0
JV-PS 5/9/26 1245 87.9   1.2 12   0 29.2   1.6 NNW | 343 4.2   3.9 8.8   5.7 1,010   2 1,006.7   1.1 61.5   5.4 88.8   1.2 18.2   3.7 0.00 66.9 93.5 21.9 0.00 12.9   0.0
BDVWA 5/9/26 1245 86.4   0.3 14   0 30.8   0.1 NE | 37 3.5   1.8 8.3   3.9 1,044   10 1,006.2   1.1 64.3   4.1 87.8   0.7 12.7   4.6 0.00 68.2 90.6 20.0 0.00 12.8   0.0
Newberry Springs 5/9/26 1245 91.0   1.0 17   3 40.8   5.4 NW | 316 7.1   4.0 13.8   8.1 1,050   17 1,007.4   1.0 66.4   0.7 91.8   1.3 24.3   4.4 0.00 67.1 98.9 28.7 0.00 12.9   0.0
Pinon Hills 5/9/26 1245 79.5   1.4 17   6 31.4   6.0 N | 8 4.2   0.2 11.0   2.0 1,014   12 1,006.9   1.9 49.7   4.5 80.8   1.6 11.8   5.0 0.00 53.6 83.9 17.1 0.00 12.8   0.0
Helendale 5/9/26 1245 88.2   0.5 22   0 45.0   1.0 ENE | 68 2.4   2.2 5.5   5.3 997   14 1,007.2   1.3 52.3   7.8 88.7   1.0 16.0   2.6 0.00 60.0 95.4 25.0 0.00 12.7   0.0
Lenwood 5/9/26 1245 88.2   1.6 18   2 40.1   4.4 NW | 326 4.1   1.8 9.2   5.5 1,028   17 1,007.3   1.1 56.5   4.9 88.9   1.7 15.8   2.8 0.00 61.4 98.2 23.2 0.00 12.4   0.4
Oak Hills 5/9/26 1245 80.8   4.0 27   10 44.0   4.6 SSW | 213 5.3   1.2 10.7   3.5 1,054   20 1,007.5   2.6 54.2   2.2 81.6   1.6 12.3   2.2 0.00 56.4 80.0 21.7 0.00 13.0   0.0
Pipes Wash Canyon 5/9/26 1245 84.7   0.0 12   0 26.6   0.4 ENE | 72 2.8   2.2 10.1   3.7 1,058   12 1,005.1   1.3 61.7   1.4 85.8   0.2 16.7   0.9 0.00 63.1 86.2 21.3 0.00 12.9   0.0
Max     91.0 27 45.0 - 7.1 14.2 1,058 1,007.5 66.4 91.8 24.3 0.00 68.2 98.9 28.7 0.00 13.0
Avg     86.4 16 34.6 - 4.1 9.9 1,030 1,006.8 - - - - - - - - -
Min     79.5 12 26.6 - 2.4 5.5 997 1,005.1 48.8 80.8 11.2 0.00 51.5 80.0 17.1 0.00 12.4

Latest Observations

Map

15 Minute Data

Rainfall & ETo

MWA Stations

15 Minute Data | America/Los_Angeles
as of 5/9/26 12:50 PM PDT
Station Date Time Latest Rain (In) Daily Rain (In) Yest Precip (In) Month Precip (In) Season Precip (In) Daily ETo (in) Yest ETo (In) 7 Day ETo (in)
MWA Office 5/9/26 1245 0.00 0.00 0.00 0.00 4.30 0.088 0.29 1.63
MWA OPS 5/9/26 1245 0.00 0.00 0.00 0.00 9.32 0.100 0.30 1.64
LV-PS 5/9/26 1245 0.00 0.00 0.00 0.00 3.63 0.124 0.33 1.88
JV-PS 5/9/26 1245 0.00 0.00 0.00 0.02 6.39 0.131 0.36 1.91
BDVWA 5/9/26 1245 0.00 0.00 0.00 0.03 6.39 0.120 0.31 1.79
Newberry Springs 5/9/26 1245 0.00 0.00 0.00 0.00 2.70 0.152 0.41 2.13
Pinon Hills 5/9/26 1245 0.00 0.00 0.00 0.00 15.51 0.099 0.26 1.54
Helendale 5/9/26 1245 0.00 0.00 0.00 0.00 5.55 0.107 0.33 1.86
Lenwood 5/9/26 1245 0.00 0.00 0.00 0.00 4.24 0.103 0.33 1.94
Oak Hills 5/9/26 1245 0.00 0.00 0.00 0.00 14.72 0.106 0.26 1.38
Pipes Wash Canyon 5/9/26 1245 0.00 0.00 0.00 0.00 13.92 0.119 0.28 1.54
Max     0.00 0.00 0.00 0.03 15.51 0.152 0.41 2.13
Avg     0.00 - - - - - - -
Min     0.00 0.00 0.00 0.00 2.70 0.088 0.26 1.38